sensor_id;sensor_type;location;lat;lon;timestamp;P1;durP1;ratioP1;P2;durP2;ratioP2
68987;SDS011;56038;46.080;11.116;2022-09-09T00:03:04;4.65;;;3.45;;
68987;SDS011;56038;46.080;11.116;2022-09-09T00:08:15;4.43;;;2.97;;
68987;SDS011;56038;46.080;11.116;2022-09-09T00:13:22;4.53;;;3.40;;
68987;SDS011;56038;46.080;11.116;2022-09-09T00:18:31;5.72;;;3.35;;
68987;SDS011;56038;46.080;11.116;2022-09-09T00:23:42;2.70;;;2.50;;
68987;SDS011;56038;46.080;11.116;2022-09-09T00:28:50;3.67;;;2.65;;
68987;SDS011;56038;46.080;11.116;2022-09-09T00:33:56;3.72;;;2.50;;
68987;SDS011;56038;46.080;11.116;2022-09-09T00:39:05;4.90;;;2.78;;
68987;SDS011;56038;46.080;11.116;2022-09-09T00:44:20;3.63;;;2.47;;
68987;SDS011;56038;46.080;11.116;2022-09-09T00:49:35;3.08;;;2.83;;
68987;SDS011;56038;46.080;11.116;2022-09-09T00:54:47;3.13;;;2.58;;
68987;SDS011;56038;46.080;11.116;2022-09-09T01:00:02;3.13;;;2.20;;
68987;SDS011;56038;46.080;11.116;2022-09-09T01:05:20;2.88;;;2.20;;
68987;SDS011;56038;46.080;11.116;2022-09-09T01:10:30;3.63;;;2.60;;
68987;SDS011;56038;46.080;11.116;2022-09-09T01:15:41;3.67;;;2.60;;
68987;SDS011;56038;46.080;11.116;2022-09-09T01:20:47;6.47;;;2.50;;
68987;SDS011;56038;46.080;11.116;2022-09-09T01:26:08;2.95;;;2.47;;
68987;SDS011;56038;46.080;11.116;2022-09-09T01:31:21;6.13;;;2.40;;
68987;SDS011;56038;46.080;11.116;2022-09-09T01:36:29;5.45;;;2.50;;
68987;SDS011;56038;46.080;11.116;2022-09-09T01:41:40;4.78;;;2.67;;
68987;SDS011;56038;46.080;11.116;2022-09-09T01:46:42;5.22;;;2.55;;
68987;SDS011;56038;46.080;11.116;2022-09-09T01:51:43;5.97;;;2.75;;
68987;SDS011;56038;46.080;11.116;2022-09-09T01:56:53;3.28;;;2.38;;
68987;SDS011;56038;46.080;11.116;2022-09-09T02:02:08;2.80;;;2.38;;
68987;SDS011;56038;46.080;11.116;2022-09-09T02:07:19;4.20;;;2.42;;
68987;SDS011;56038;46.080;11.116;2022-09-09T02:12:33;4.97;;;2.45;;
68987;SDS011;56038;46.080;11.116;2022-09-09T02:22:40;2.90;;;2.70;;
68987;SDS011;56038;46.080;11.116;2022-09-09T02:27:46;2.42;;;2.22;;
68987;SDS011;56038;46.080;11.116;2022-09-09T02:32:50;2.65;;;2.42;;
68987;SDS011;56038;46.080;11.116;2022-09-09T02:37:58;3.75;;;2.63;;
68987;SDS011;56038;46.080;11.116;2022-09-09T02:43:05;3.90;;;2.80;;
68987;SDS011;56038;46.080;11.116;2022-09-09T02:48:09;6.82;;;2.50;;
68987;SDS011;56038;46.080;11.116;2022-09-09T02:53:16;5.53;;;2.40;;
68987;SDS011;56038;46.080;11.116;2022-09-09T02:58:22;3.38;;;2.80;;
68987;SDS011;56038;46.080;11.116;2022-09-09T03:03:24;2.63;;;2.42;;
68987;SDS011;56038;46.080;11.116;2022-09-09T03:08:27;2.65;;;2.15;;
68987;SDS011;56038;46.080;11.116;2022-09-09T03:13:30;3.47;;;2.70;;
68987;SDS011;56038;46.080;11.116;2022-09-09T03:18:32;4.35;;;3.22;;
68987;SDS011;56038;46.080;11.116;2022-09-09T03:23:34;4.15;;;2.50;;
68987;SDS011;56038;46.080;11.116;2022-09-09T03:28:37;2.85;;;2.03;;
68987;SDS011;56038;46.080;11.116;2022-09-09T03:33:39;6.93;;;2.05;;
68987;SDS011;56038;46.080;11.116;2022-09-09T03:38:41;3.33;;;2.15;;
68987;SDS011;56038;46.080;11.116;2022-09-09T03:43:44;4.70;;;2.55;;
68987;SDS011;56038;46.080;11.116;2022-09-09T03:48:46;3.03;;;2.42;;
68987;SDS011;56038;46.080;11.116;2022-09-09T03:53:48;7.00;;;2.10;;
68987;SDS011;56038;46.080;11.116;2022-09-09T03:58:51;3.47;;;2.03;;
68987;SDS011;56038;46.080;11.116;2022-09-09T04:03:53;6.70;;;2.10;;
68987;SDS011;56038;46.080;11.116;2022-09-09T04:08:58;2.72;;;1.92;;
68987;SDS011;56038;46.080;11.116;2022-09-09T04:14:01;4.75;;;2.13;;
68987;SDS011;56038;46.080;11.116;2022-09-09T04:19:03;2.33;;;1.90;;
68987;SDS011;56038;46.080;11.116;2022-09-09T04:24:06;5.38;;;2.20;;
68987;SDS011;56038;46.080;11.116;2022-09-09T04:29:10;2.88;;;2.03;;
68987;SDS011;56038;46.080;11.116;2022-09-09T04:34:11;4.95;;;2.42;;
68987;SDS011;56038;46.080;11.116;2022-09-09T04:39:13;3.35;;;2.00;;
68987;SDS011;56038;46.080;11.116;2022-09-09T04:44:16;4.57;;;2.10;;
68987;SDS011;56038;46.080;11.116;2022-09-09T04:49:18;3.33;;;2.15;;
68987;SDS011;56038;46.080;11.116;2022-09-09T04:54:20;2.47;;;2.33;;
68987;SDS011;56038;46.080;11.116;2022-09-09T04:59:24;6.00;;;2.33;;
68987;SDS011;56038;46.080;11.116;2022-09-09T05:04:26;3.80;;;2.60;;
68987;SDS011;56038;46.080;11.116;2022-09-09T05:09:28;4.93;;;2.45;;
68987;SDS011;56038;46.080;11.116;2022-09-09T05:14:32;3.83;;;2.22;;
68987;SDS011;56038;46.080;11.116;2022-09-09T05:19:33;6.50;;;2.50;;
68987;SDS011;56038;46.080;11.116;2022-09-09T05:24:35;5.78;;;2.60;;
68987;SDS011;56038;46.080;11.116;2022-09-09T05:29:39;6.03;;;2.55;;
68987;SDS011;56038;46.080;11.116;2022-09-09T05:34:41;6.32;;;2.80;;
68987;SDS011;56038;46.080;11.116;2022-09-09T05:39:43;6.40;;;2.22;;
68987;SDS011;56038;46.080;11.116;2022-09-09T05:44:46;12.60;;;3.10;;
68987;SDS011;56038;46.080;11.116;2022-09-09T05:49:47;81.38;;;8.90;;
68987;SDS011;56038;46.080;11.116;2022-09-09T05:54:49;7.53;;;3.55;;
68987;SDS011;56038;46.080;11.116;2022-09-09T05:59:52;4.15;;;3.55;;
68987;SDS011;56038;46.080;11.116;2022-09-09T06:04:54;4.68;;;2.55;;
68987;SDS011;56038;46.080;11.116;2022-09-09T06:09:56;4.90;;;2.60;;
68987;SDS011;56038;46.080;11.116;2022-09-09T06:15:00;7.03;;;2.70;;
68987;SDS011;56038;46.080;11.116;2022-09-09T06:20:02;5.45;;;3.00;;
68987;SDS011;56038;46.080;11.116;2022-09-09T06:25:05;9.73;;;5.72;;
68987;SDS011;56038;46.080;11.116;2022-09-09T06:30:10;3.55;;;2.50;;
68987;SDS011;56038;46.080;11.116;2022-09-09T06:35:12;6.63;;;3.43;;
68987;SDS011;56038;46.080;11.116;2022-09-09T06:40:14;3.13;;;2.28;;
68987;SDS011;56038;46.080;11.116;2022-09-09T06:45:17;4.10;;;2.25;;
68987;SDS011;56038;46.080;11.116;2022-09-09T06:50:19;2.05;;;1.80;;
68987;SDS011;56038;46.080;11.116;2022-09-09T06:55:21;4.15;;;2.28;;
68987;SDS011;56038;46.080;11.116;2022-09-09T07:00:24;5.82;;;2.15;;
68987;SDS011;56038;46.080;11.116;2022-09-09T07:05:25;3.40;;;2.10;;
68987;SDS011;56038;46.080;11.116;2022-09-09T07:10:27;4.88;;;2.30;;
68987;SDS011;56038;46.080;11.116;2022-09-09T07:15:30;2.40;;;1.90;;
68987;SDS011;56038;46.080;11.116;2022-09-09T07:20:32;4.65;;;2.72;;
68987;SDS011;56038;46.080;11.116;2022-09-09T07:25:34;5.05;;;2.00;;
68987;SDS011;56038;46.080;11.116;2022-09-09T07:30:37;2.80;;;1.60;;
68987;SDS011;56038;46.080;11.116;2022-09-09T07:35:40;2.30;;;1.83;;
68987;SDS011;56038;46.080;11.116;2022-09-09T07:40:41;2.28;;;1.73;;
68987;SDS011;56038;46.080;11.116;2022-09-09T07:45:45;3.90;;;1.73;;
68987;SDS011;56038;46.080;11.116;2022-09-09T07:50:47;4.78;;;1.88;;
68987;SDS011;56038;46.080;11.116;2022-09-09T07:55:48;6.20;;;2.30;;
68987;SDS011;56038;46.080;11.116;2022-09-09T08:00:51;6.68;;;2.40;;
68987;SDS011;56038;46.080;11.116;2022-09-09T08:05:53;3.85;;;1.90;;
68987;SDS011;56038;46.080;11.116;2022-09-09T08:11:02;3.15;;;2.20;;
68987;SDS011;56038;46.080;11.116;2022-09-09T08:16:09;6.70;;;2.00;;
68987;SDS011;56038;46.080;11.116;2022-09-09T08:21:13;7.43;;;1.98;;
68987;SDS011;56038;46.080;11.116;2022-09-09T08:26:18;6.22;;;2.50;;
68987;SDS011;56038;46.080;11.116;2022-09-09T08:31:25;6.55;;;2.33;;
68987;SDS011;56038;46.080;11.116;2022-09-09T08:36:29;6.47;;;2.42;;
68987;SDS011;56038;46.080;11.116;2022-09-09T08:47:28;3.83;;;1.88;;
68987;SDS011;56038;46.080;11.116;2022-09-09T08:52:39;2.92;;;1.45;;
68987;SDS011;56038;46.080;11.116;2022-09-09T08:57:46;3.05;;;1.77;;
68987;SDS011;56038;46.080;11.116;2022-09-09T09:02:53;2.05;;;1.85;;
68987;SDS011;56038;46.080;11.116;2022-09-09T09:08:07;6.07;;;4.10;;
68987;SDS011;56038;46.080;11.116;2022-09-09T09:13:18;4.72;;;2.03;;
68987;SDS011;56038;46.080;11.116;2022-09-09T09:18:23;4.63;;;2.00;;
68987;SDS011;56038;46.080;11.116;2022-09-09T09:23:25;2.17;;;1.90;;
68987;SDS011;56038;46.080;11.116;2022-09-09T09:28:35;2.67;;;2.08;;
68987;SDS011;56038;46.080;11.116;2022-09-09T09:33:42;2.40;;;2.17;;
68987;SDS011;56038;46.080;11.116;2022-09-09T09:38:52;4.50;;;2.35;;
68987;SDS011;56038;46.080;11.116;2022-09-09T09:43:55;1.65;;;1.55;;
68987;SDS011;56038;46.080;11.116;2022-09-09T09:48:59;3.75;;;2.17;;
68987;SDS011;56038;46.080;11.116;2022-09-09T09:54:09;2.70;;;1.80;;
68987;SDS011;56038;46.080;11.116;2022-09-09T09:59:23;5.40;;;2.88;;
68987;SDS011;56038;46.080;11.116;2022-09-09T10:04:35;1.58;;;1.48;;
68987;SDS011;56038;46.080;11.116;2022-09-09T10:09:37;0.98;;;0.90;;
68987;SDS011;56038;46.080;11.116;2022-09-09T10:14:41;1.10;;;1.00;;
68987;SDS011;56038;46.080;11.116;2022-09-09T10:19:53;1.48;;;1.00;;
68987;SDS011;56038;46.080;11.116;2022-09-09T10:25:25;0.98;;;0.90;;
68987;SDS011;56038;46.080;11.116;2022-09-09T10:30:35;1.35;;;1.10;;
68987;SDS011;56038;46.080;11.116;2022-09-09T10:35:51;1.00;;;0.77;;
68987;SDS011;56038;46.080;11.116;2022-09-09T10:41:04;1.67;;;0.80;;
68987;SDS011;56038;46.080;11.116;2022-09-09T10:46:14;1.08;;;0.90;;
68987;SDS011;56038;46.080;11.116;2022-09-09T10:51:28;1.10;;;1.00;;
68987;SDS011;56038;46.080;11.116;2022-09-09T10:56:34;0.85;;;0.70;;
68987;SDS011;56038;46.080;11.116;2022-09-09T11:01:39;0.70;;;0.70;;
68987;SDS011;56038;46.080;11.116;2022-09-09T11:06:47;3.67;;;3.08;;
68987;SDS011;56038;46.080;11.116;2022-09-09T11:11:55;1.02;;;0.85;;
68987;SDS011;56038;46.080;11.116;2022-09-09T11:16:59;1.23;;;1.13;;
68987;SDS011;56038;46.080;11.116;2022-09-09T11:22:06;1.45;;;1.10;;
68987;SDS011;56038;46.080;11.116;2022-09-09T11:27:16;2.40;;;1.88;;
68987;SDS011;56038;46.080;11.116;2022-09-09T11:32:32;3.75;;;1.98;;
68987;SDS011;56038;46.080;11.116;2022-09-09T11:38:04;5.22;;;1.20;;
68987;SDS011;56038;46.080;11.116;2022-09-09T11:43:26;1.55;;;0.90;;
68987;SDS011;56038;46.080;11.116;2022-09-09T11:48:34;1.15;;;0.80;;
68987;SDS011;56038;46.080;11.116;2022-09-09T11:53:48;2.03;;;1.00;;
68987;SDS011;56038;46.080;11.116;2022-09-09T11:58:55;0.80;;;0.80;;
68987;SDS011;56038;46.080;11.116;2022-09-09T12:04:04;0.95;;;0.90;;
68987;SDS011;56038;46.080;11.116;2022-09-09T12:09:33;2.30;;;0.90;;
68987;SDS011;56038;46.080;11.116;2022-09-09T12:14:54;1.00;;;0.80;;
68987;SDS011;56038;46.080;11.116;2022-09-09T12:20:21;1.33;;;0.63;;
68987;SDS011;56038;46.080;11.116;2022-09-09T12:25:29;1.50;;;1.10;;
68987;SDS011;56038;46.080;11.116;2022-09-09T12:30:40;1.05;;;0.80;;
68987;SDS011;56038;46.080;11.116;2022-09-09T12:35:51;0.73;;;0.70;;
68987;SDS011;56038;46.080;11.116;2022-09-09T12:40:58;2.00;;;1.20;;
68987;SDS011;56038;46.080;11.116;2022-09-09T12:46:01;1.10;;;0.70;;
68987;SDS011;56038;46.080;11.116;2022-09-09T12:56:17;0.95;;;0.70;;
68987;SDS011;56038;46.080;11.116;2022-09-09T13:01:22;0.98;;;0.80;;
68987;SDS011;56038;46.080;11.116;2022-09-09T13:06:26;1.77;;;1.25;;
68987;SDS011;56038;46.080;11.116;2022-09-09T13:11:30;4.13;;;0.93;;
68987;SDS011;56038;46.080;11.116;2022-09-09T13:16:39;4.70;;;0.80;;
68987;SDS011;56038;46.080;11.116;2022-09-09T13:21:40;1.73;;;0.60;;
68987;SDS011;56038;46.080;11.116;2022-09-09T13:26:44;0.70;;;0.70;;
68987;SDS011;56038;46.080;11.116;2022-09-09T13:32:03;1.02;;;0.68;;
68987;SDS011;56038;46.080;11.116;2022-09-09T13:37:06;0.60;;;0.50;;
68987;SDS011;56038;46.080;11.116;2022-09-09T13:42:29;1.33;;;0.55;;
68987;SDS011;56038;46.080;11.116;2022-09-09T13:47:35;1.20;;;0.50;;
68987;SDS011;56038;46.080;11.116;2022-09-09T13:52:38;0.50;;;0.50;;
68987;SDS011;56038;46.080;11.116;2022-09-09T13:57:54;2.15;;;0.77;;
68987;SDS011;56038;46.080;11.116;2022-09-09T14:02:57;1.95;;;1.38;;
68987;SDS011;56038;46.080;11.116;2022-09-09T14:08:03;1.70;;;0.70;;
68987;SDS011;56038;46.080;11.116;2022-09-09T14:13:10;1.58;;;0.70;;
68987;SDS011;56038;46.080;11.116;2022-09-09T14:18:15;1.45;;;0.60;;
68987;SDS011;56038;46.080;11.116;2022-09-09T14:23:22;0.60;;;0.60;;
68987;SDS011;56038;46.080;11.116;2022-09-09T14:28:25;1.02;;;0.80;;
68987;SDS011;56038;46.080;11.116;2022-09-09T14:38:30;0.95;;;0.40;;
68987;SDS011;56038;46.080;11.116;2022-09-09T14:48:38;0.50;;;0.47;;
68987;SDS011;56038;46.080;11.116;2022-09-09T14:53:40;1.20;;;0.50;;
68987;SDS011;56038;46.080;11.116;2022-09-09T14:58:45;0.60;;;0.50;;
68987;SDS011;56038;46.080;11.116;2022-09-09T15:03:51;1.73;;;0.70;;
68987;SDS011;56038;46.080;11.116;2022-09-09T15:08:54;1.25;;;0.40;;
68987;SDS011;56038;46.080;11.116;2022-09-09T15:13:59;0.50;;;0.50;;
68987;SDS011;56038;46.080;11.116;2022-09-09T15:19:01;1.65;;;0.60;;
68987;SDS011;56038;46.080;11.116;2022-09-09T15:24:04;0.63;;;0.50;;
68987;SDS011;56038;46.080;11.116;2022-09-09T15:29:08;0.47;;;0.47;;
68987;SDS011;56038;46.080;11.116;2022-09-09T15:34:10;2.78;;;0.60;;
68987;SDS011;56038;46.080;11.116;2022-09-09T15:39:14;0.93;;;0.70;;
68987;SDS011;56038;46.080;11.116;2022-09-09T15:44:18;0.70;;;0.70;;
68987;SDS011;56038;46.080;11.116;2022-09-09T15:49:21;2.10;;;0.63;;
68987;SDS011;56038;46.080;11.116;2022-09-09T15:54:25;1.02;;;0.75;;
68987;SDS011;56038;46.080;11.116;2022-09-09T15:59:29;0.95;;;0.60;;
68987;SDS011;56038;46.080;11.116;2022-09-09T16:04:32;1.05;;;0.90;;
68987;SDS011;56038;46.080;11.116;2022-09-09T16:09:34;2.92;;;0.88;;
68987;SDS011;56038;46.080;11.116;2022-09-09T16:14:37;1.27;;;0.75;;
68987;SDS011;56038;46.080;11.116;2022-09-09T16:19:39;1.77;;;0.88;;
68987;SDS011;56038;46.080;11.116;2022-09-09T16:24:41;4.25;;;1.55;;
68987;SDS011;56038;46.080;11.116;2022-09-09T16:29:45;1.92;;;0.80;;
68987;SDS011;56038;46.080;11.116;2022-09-09T16:34:47;3.17;;;0.80;;
68987;SDS011;56038;46.080;11.116;2022-09-09T16:39:49;1.33;;;1.10;;
68987;SDS011;56038;46.080;11.116;2022-09-09T16:44:52;1.10;;;0.90;;
68987;SDS011;56038;46.080;11.116;2022-09-09T16:49:54;1.20;;;0.52;;
68987;SDS011;56038;46.080;11.116;2022-09-09T16:54:56;0.80;;;0.80;;
68987;SDS011;56038;46.080;11.116;2022-09-09T17:00:00;4.35;;;1.20;;
68987;SDS011;56038;46.080;11.116;2022-09-09T17:05:05;1.42;;;1.33;;
68987;SDS011;56038;46.080;11.116;2022-09-09T17:10:07;1.88;;;1.77;;
68987;SDS011;56038;46.080;11.116;2022-09-09T17:15:11;2.08;;;1.90;;
68987;SDS011;56038;46.080;11.116;2022-09-09T17:20:12;5.35;;;1.75;;
68987;SDS011;56038;46.080;11.116;2022-09-09T17:25:16;1.73;;;1.63;;
68987;SDS011;56038;46.080;11.116;2022-09-09T17:30:19;1.65;;;1.55;;
68987;SDS011;56038;46.080;11.116;2022-09-09T17:35:21;1.55;;;1.38;;
68987;SDS011;56038;46.080;11.116;2022-09-09T17:40:23;3.03;;;1.25;;
68987;SDS011;56038;46.080;11.116;2022-09-09T17:45:27;2.10;;;1.25;;
68987;SDS011;56038;46.080;11.116;2022-09-09T17:50:30;4.80;;;1.23;;
68987;SDS011;56038;46.080;11.116;2022-09-09T17:55:33;1.48;;;1.10;;
68987;SDS011;56038;46.080;11.116;2022-09-09T18:00:36;4.60;;;1.23;;
68987;SDS011;56038;46.080;11.116;2022-09-09T18:05:38;2.33;;;1.17;;
68987;SDS011;56038;46.080;11.116;2022-09-09T18:10:40;2.72;;;1.00;;
68987;SDS011;56038;46.080;11.116;2022-09-09T18:15:45;2.70;;;1.13;;
68987;SDS011;56038;46.080;11.116;2022-09-09T18:20:46;2.20;;;0.90;;
68987;SDS011;56038;46.080;11.116;2022-09-09T18:25:57;0.93;;;0.93;;
68987;SDS011;56038;46.080;11.116;2022-09-09T18:31:04;2.08;;;1.00;;
68987;SDS011;56038;46.080;11.116;2022-09-09T18:36:07;1.13;;;1.02;;
68987;SDS011;56038;46.080;11.116;2022-09-09T18:41:13;10.60;;;4.05;;
68987;SDS011;56038;46.080;11.116;2022-09-09T18:46:18;4.30;;;2.00;;
68987;SDS011;56038;46.080;11.116;2022-09-09T18:51:21;5.28;;;1.50;;
68987;SDS011;56038;46.080;11.116;2022-09-09T18:56:24;3.37;;;1.47;;
68987;SDS011;56038;46.080;11.116;2022-09-09T19:01:28;6.47;;;2.00;;
68987;SDS011;56038;46.080;11.116;2022-09-09T19:06:31;5.50;;;1.77;;
68987;SDS011;56038;46.080;11.116;2022-09-09T19:11:33;5.43;;;2.60;;
68987;SDS011;56038;46.080;11.116;2022-09-09T19:16:36;5.50;;;2.33;;
68987;SDS011;56038;46.080;11.116;2022-09-09T19:21:39;5.25;;;1.92;;
68987;SDS011;56038;46.080;11.116;2022-09-09T19:26:43;3.20;;;1.58;;
68987;SDS011;56038;46.080;11.116;2022-09-09T19:31:48;5.87;;;2.00;;
68987;SDS011;56038;46.080;11.116;2022-09-09T19:36:51;4.65;;;2.25;;
68987;SDS011;56038;46.080;11.116;2022-09-09T19:41:52;5.18;;;2.13;;
68987;SDS011;56038;46.080;11.116;2022-09-09T19:46:56;4.20;;;2.03;;
68987;SDS011;56038;46.080;11.116;2022-09-09T19:57:01;5.18;;;1.50;;
68987;SDS011;56038;46.080;11.116;2022-09-09T20:02:05;4.93;;;1.85;;
68987;SDS011;56038;46.080;11.116;2022-09-09T20:07:06;4.38;;;1.77;;
68987;SDS011;56038;46.080;11.116;2022-09-09T20:12:09;2.47;;;1.80;;
68987;SDS011;56038;46.080;11.116;2022-09-09T20:17:12;3.47;;;1.20;;
68987;SDS011;56038;46.080;11.116;2022-09-09T20:22:13;4.85;;;1.65;;
68987;SDS011;56038;46.080;11.116;2022-09-09T20:27:15;3.75;;;1.83;;
68987;SDS011;56038;46.080;11.116;2022-09-09T20:32:19;3.60;;;1.52;;
68987;SDS011;56038;46.080;11.116;2022-09-09T20:37:21;4.55;;;1.75;;
68987;SDS011;56038;46.080;11.116;2022-09-09T20:42:23;2.42;;;1.90;;
68987;SDS011;56038;46.080;11.116;2022-09-09T20:47:26;7.22;;;4.20;;
68987;SDS011;56038;46.080;11.116;2022-09-09T20:52:27;1.60;;;1.50;;
68987;SDS011;56038;46.080;11.116;2022-09-09T20:57:29;1.88;;;1.70;;
68987;SDS011;56038;46.080;11.116;2022-09-09T21:02:32;1.80;;;1.60;;
68987;SDS011;56038;46.080;11.116;2022-09-09T21:07:34;2.83;;;1.92;;
68987;SDS011;56038;46.080;11.116;2022-09-09T21:12:36;2.20;;;1.60;;
68987;SDS011;56038;46.080;11.116;2022-09-09T21:17:39;3.35;;;1.83;;
68987;SDS011;56038;46.080;11.116;2022-09-09T21:22:41;2.85;;;1.83;;
68987;SDS011;56038;46.080;11.116;2022-09-09T21:27:43;3.67;;;2.00;;
68987;SDS011;56038;46.080;11.116;2022-09-09T21:32:46;1.85;;;1.48;;
68987;SDS011;56038;46.080;11.116;2022-09-09T21:37:48;2.92;;;1.30;;
68987;SDS011;56038;46.080;11.116;2022-09-09T21:42:49;1.50;;;0.95;;
68987;SDS011;56038;46.080;11.116;2022-09-09T21:47:52;1.42;;;0.85;;
68987;SDS011;56038;46.080;11.116;2022-09-09T21:52:54;1.42;;;1.25;;
68987;SDS011;56038;46.080;11.116;2022-09-09T21:57:56;1.00;;;1.00;;
68987;SDS011;56038;46.080;11.116;2022-09-09T22:02:59;1.88;;;1.40;;
68987;SDS011;56038;46.080;11.116;2022-09-09T22:08:08;2.70;;;1.17;;
68987;SDS011;56038;46.080;11.116;2022-09-09T22:13:10;2.13;;;0.98;;
68987;SDS011;56038;46.080;11.116;2022-09-09T22:18:14;1.70;;;0.90;;
68987;SDS011;56038;46.080;11.116;2022-09-09T22:23:18;1.13;;;1.02;;
68987;SDS011;56038;46.080;11.116;2022-09-09T22:28:20;1.38;;;1.00;;
68987;SDS011;56038;46.080;11.116;2022-09-09T22:33:23;1.00;;;0.90;;
68987;SDS011;56038;46.080;11.116;2022-09-09T22:38:26;0.82;;;0.73;;
68987;SDS011;56038;46.080;11.116;2022-09-09T22:43:28;2.55;;;0.88;;
68987;SDS011;56038;46.080;11.116;2022-09-09T22:48:33;0.90;;;0.90;;
68987;SDS011;56038;46.080;11.116;2022-09-09T22:53:37;1.00;;;0.90;;
68987;SDS011;56038;46.080;11.116;2022-09-09T22:58:39;0.70;;;0.70;;
68987;SDS011;56038;46.080;11.116;2022-09-09T23:03:42;0.75;;;0.60;;
68987;SDS011;56038;46.080;11.116;2022-09-09T23:08:46;2.77;;;0.90;;
68987;SDS011;56038;46.080;11.116;2022-09-09T23:13:49;0.50;;;0.50;;
68987;SDS011;56038;46.080;11.116;2022-09-09T23:18:54;1.75;;;0.50;;
68987;SDS011;56038;46.080;11.116;2022-09-09T23:23:56;0.80;;;0.65;;
68987;SDS011;56038;46.080;11.116;2022-09-09T23:28:59;0.60;;;0.40;;
68987;SDS011;56038;46.080;11.116;2022-09-09T23:34:03;1.17;;;0.50;;
68987;SDS011;56038;46.080;11.116;2022-09-09T23:39:05;0.60;;;0.40;;
68987;SDS011;56038;46.080;11.116;2022-09-09T23:44:07;1.08;;;0.60;;
68987;SDS011;56038;46.080;11.116;2022-09-09T23:49:13;1.98;;;0.68;;
68987;SDS011;56038;46.080;11.116;2022-09-09T23:54:14;0.85;;;0.57;;
68987;SDS011;56038;46.080;11.116;2022-09-09T23:59:16;0.75;;;0.65;;
